Latest Coastal Weather Observations for Gabo Island

IDV60701

Issued at 1:12 am EST Friday 30 September 2016 (issued every 10 minutes, with the page automatically refreshed every 10 minutes)

About coastal observations | Map of coastal stations | Coastal observations for VIC | Marine services | Other Formats
Station Details ID: 084016 Name: GABO ISLAND LIGHTHOUSE Lat: -37.57 Lon: 149.92 Height: 15.2 m
Data from the previous 72 hours. | See also: Recent months at Gabo Island
Date/Time
EST
Temp
°C
Wind Pressure Rain since
9am
mm
Weather Cloud Vis
km
Sea
Height
m
Swell
Dir  Spd
kts
Gust
kts
hPa Trend Height
m
Period
s
Dir
30/01:00am 10.7 WNW 7 8 993.9 - 8.6 - - - - - - -
30/12:30am 11.0 WNW 7 8 993.8 - 8.6 - - - - - - -
30/12:00am 10.6 W 4 6 994.0 - 8.6 - - - - - - -
 
Date/Time
EST
Temp
°C
Wind Pressure Rain since
9am
mm
Weather Cloud Vis
km
Sea
Height
m
Swell
Dir  Spd
kts
Gust
kts
hPa Trend Height
m
Period
s
Dir
29/11:30pm 10.6 W 4 6 993.9 - 8.6 - - - - - - -
29/11:00pm 11.2 NW 6 7 993.5 - 8.6 - - - - - - -
29/10:30pm 11.0 WSW 4 6 993.4 - 8.6 - - - - - - -
29/10:00pm 11.0 W 4 5 992.9 - 8.6 - - - - - - -
29/09:30pm 11.3 W 4 7 993.0 - 8.6 - - - - - - -
29/09:00pm 12.1 NW 6 9 993.0 - 8.6 Fine Mostly clear 30 1 1.8 8 NE
29/08:30pm 10.9 N 6 6 992.8 - 8.6 - - - - - - -
29/08:00pm 10.9 N 6 7 992.7 - 8.6 - - - - - - -
29/07:30pm 13.3 WSW 2 3 992.4 - 8.6 - - - - - - -
29/07:00pm 13.7 S 7 8 992.2 - 8.6 - - - - - - -
29/06:30pm 13.8 S 12 14 992.1 - 8.6 - - - - - - -
29/06:00pm 14.3 E 5 8 991.7 - 8.6 Recent precip. - - - - - -
29/05:31pm 13.9 W 15 25 991.6 - 6.0 - - - - - - -
29/05:30pm 14.3 W 14 24 991.6 - 5.8 - - - - - - -
29/05:00pm 16.1 N 11 14 990.7 - 4.8 - - - - - - -
29/04:30pm 16.5 N 13 17 990.3 - 4.8 - - - - - - -
29/04:00pm 17.1 NNE 15 19 990.2 - 4.8 - - - - - - -
29/03:30pm 17.4 N 17 21 990.4 - 4.8 - - - - - - -
29/03:00pm 17.3 N 21 29 990.4 - 4.8 Fine Partly cloudy 15 2 2.0 8 NE
29/02:30pm 16.6 N 26 32 990.3 - 4.8 - - - - - - -
29/02:00pm 15.1 NNE 27 35 989.8 - 4.8 - - - - - - -
29/01:39pm 15.0 NNE 29 39 990.0 - 4.8 - - - - - - -
29/01:30pm 15.1 NNE 31 39 989.9 - 4.8 - - - - - - -
29/01:00pm 14.9 NNE 28 39 991.6 - 4.8 - - - - - - -
29/12:30pm 14.9 N 31 42 991.8 - 4.8 - - - - - - -
29/12:13pm 14.8 NNE 29 40 991.5 - 4.8 - - - - - - -
29/12:00pm 14.5 NNE 28 36 990.9 - 4.8 Rain - - - - - -
29/11:35am 14.6 N 27 37 992.6 - 4.2 - - - - - - -
29/11:30am 14.5 N 27 34 992.7 - 4.0 - - - - - - -
29/11:00am 14.4 NNE 26 34 992.9 - 3.0 - - - - - - -
29/10:30am 14.8 NNE 26 34 993.3 - 2.2 - - - - - - -
29/10:00am 14.7 NNE 30 37 993.7 - 1.0 - - - - - - -
29/09:30am 14.8 NNE 26 34 994.4 - 0.2 - - - - - - -
29/09:08am 15.2 NNE 27 37 995.2 - 0.0 - - - - - - -
29/09:00am 15.3 NNE 25 33 995.7 - 0.0 Distant precip. Cloudy 10 2 1.2 6 NE
29/08:30am 14.8 NNE 22 26 996.7 - 0.0 - - - - - - -
29/08:00am 14.0 NNE 21 29 997.1 - 0.0 - - - - - - -
29/07:38am 15.1 NNE 24 34 997.5 - 0.0 - - - - - - -
29/07:30am 15.4 NNE 23 28 997.9 - 0.0 - - - - - - -
29/07:00am 15.5 NNE 25 32 998.1 - 0.0 - - - - - - -
29/06:30am 15.4 NNE 28 35 998.1 - 0.0 - - - - - - -
29/06:00am 15.4 NNE 27 34 998.1 - 0.0 - - - - - - -
29/05:30am 15.5 NNE 29 35 998.0 - 0.0 - - - - - - -
29/05:16am 15.5 NNE 30 40 998.0 - 0.0 - - - - - - -
29/05:00am 15.5 NNE 31 38 997.8 - 0.0 - - - - - - -
29/04:30am 15.5 NNE 30 35 998.4 - 0.0 - - - - - - -
29/04:00am 15.7 NNE 26 35 999.4 - 0.0 - - - - - - -
29/03:56am 15.4 NNE 25 35 999.5 - 0.0 - - - - - - -
29/03:30am 15.5 NNE 29 34 1000.0 - 0.0 - - - - - - -
29/03:00am 15.7 NNE 29 36 1000.7 - 0.0 Fine Mostly cloudy 20 2 - - -
29/02:30am 15.1 NNE 27 33 1001.1 - 0.0 - - - - - - -
29/02:00am 15.0 NNE 27 34 1001.8 - 0.0 - - - - - - -
29/01:30am 14.9 NNE 23 29 1002.5 - 0.0 - - - - - - -
29/01:00am 14.9 NNE 23 28 1003.6 - 0.0 - - - - - - -
29/12:30am 14.8 NNE 24 30 1003.8 - 0.0 - - - - - - -
29/12:00am 14.8 NNE 18 23 1005.2 - 0.0 - - - - - - -
 
Date/Time
EST
Temp
°C
Wind Pressure Rain since
9am
mm
Weather Cloud Vis
km
Sea
Height
m
Swell
Dir  Spd
kts
Gust
kts
hPa Trend Height
m
Period
s
Dir
28/11:30pm 14.8 NNE 20 27 1005.3 - 0.0 - - - - - - -
28/11:00pm 15.0 NNE 25 32 1005.1 - 0.0 - - - - - - -
28/10:30pm 15.0 NNE 28 37 1005.5 - 0.0 - - - - - - -
28/10:00pm 15.0 NNE 30 36 1005.8 - 0.0 - - - - - - -
28/09:30pm 14.8 NNE 27 33 1006.1 - 0.0 - - - - - - -
28/09:00pm 14.8 NNE 24 32 1006.5 - 0.0 Fine Partly cloudy 30 1 1.2 8 S
28/08:30pm 14.8 NNE 21 27 1007.4 - 0.0 - - - - - - -
28/08:00pm 14.7 NNE 19 23 1008.0 - 0.0 - - - - - - -
28/07:30pm 14.8 NNE 19 24 1008.1 - 0.0 - - - - - - -
28/07:00pm 14.8 NE 20 24 1008.1 - 0.0 - - - - - - -
28/06:30pm 14.8 NE 22 26 1007.9 - 0.0 - - - - - - -
28/06:00pm 14.7 NE 20 23 1007.8 - 0.0 - - - - - - -
28/05:30pm 14.6 NE 20 22 1008.3 - 0.0 - - - - - - -
28/05:00pm 14.8 NE 17 20 1008.8 - 0.0 - - - - - - -
28/04:30pm 14.8 ENE 16 18 1008.8 - 0.0 - - - - - - -
28/04:00pm 15.0 ENE 15 17 1009.0 - 0.0 - - - - - - -
28/03:30pm 15.3 E 13 15 1009.1 - 0.0 - - - - - - -
28/03:00pm 15.5 E 9 12 1009.9 - 0.0 Fine Mostly clear 30 1 1.0 8 S
28/02:30pm 16.2 ESE 7 9 1010.6 - 0.0 - - - - - - -
28/02:00pm 16.6 SE 5 7 1011.1 - 0.0 - - - - - - -
28/01:30pm 16.5 SSE 5 7 1011.5 - 0.0 - - - - - - -
28/01:00pm 16.2 S 7 9 1011.7 - 0.0 - - - - - - -
28/12:30pm 16.7 S 9 10 1012.1 - 0.0 - - - - - - -
28/12:00pm 15.9 SSW 9 11 1012.5 - 0.0 - - - - - - -
28/11:30am 15.7 SW 11 13 1012.9 - 0.0 - - - - - - -
28/11:00am 15.3 SW 12 14 1013.1 - 0.0 - - - - - - -
28/10:30am 15.4 SW 12 14 1013.3 - 0.0 - - - - - - -
28/10:00am 15.1 SW 13 16 1013.4 - 0.0 - - - - - - -
28/09:30am 15.0 SW 12 17 1013.6 - 0.0 - - - - - - -
28/09:00am 14.8 WSW 10 13 1013.7 - 1.0 Fine Mostly clear 30 1 1.0 8 S
28/08:30am 13.8 WSW 12 15 1013.7 - 1.0 - - - - - - -
28/08:00am 13.0 W 11 14 1013.7 - 1.0 - - - - - - -
28/07:30am 12.1 W 14 17 1013.7 - 1.0 - - - - - - -
28/07:00am 11.5 W 14 17 1013.5 - 1.0 - - - - - - -
28/06:30am 10.9 W 14 18 1013.3 - 1.0 - - - - - - -
28/06:00am 10.6 W 15 19 1013.1 - 1.0 - - - - - - -
28/05:30am 10.4 W 14 18 1012.8 - 1.0 - - - - - - -
28/05:00am 10.4 W 14 21 1012.6 - 1.0 - - - - - - -
28/04:30am 10.9 W 17 21 1012.3 - 1.0 - - - - - - -
28/04:00am 10.9 W 14 20 1012.2 - 1.0 - - - - - - -
28/03:30am 11.1 W 16 20 1011.9 - 1.0 - - - - - - -
28/03:00am 10.8 W 16 21 1011.8 - 1.0 Fine Mostly clear 30 1 1.0 7 S
28/02:30am 11.0 W 18 22 1011.7 - 1.0 - - - - - - -
28/02:00am 10.9 W 16 20 1011.8 - 1.0 - - - - - - -
28/01:30am 10.5 W 12 16 1011.9 - 1.0 - - - - - - -
28/01:00am 10.6 W 13 18 1012.1 - 1.0 - - - - - - -
28/12:30am 10.9 W 12 16 1012.1 - 1.0 - - - - - - -
28/12:00am 10.5 WNW 11 15 1012.0 - 1.0 - - - - - - -
 
Date/Time
EST
Temp
°C
Wind Pressure Rain since
9am
mm
Weather Cloud Vis
km
Sea
Height
m
Swell
Dir  Spd
kts
Gust
kts
hPa Trend Height
m
Period
s
Dir
27/11:30pm 11.0 W 12 16 1011.8 - 1.0 - - - - - - -
27/11:00pm 11.1 W 13 17 1011.8 - 1.0 - - - - - - -
27/10:30pm 10.8 W 11 15 1011.9 - 1.0 - - - - - - -
27/10:00pm 10.9 W 11 14 1011.9 - 1.0 - - - - - - -
27/09:30pm 10.8 WNW 10 13 1012.0 - 1.0 - - - - - - -
27/09:00pm 11.0 W 12 15 1012.1 - 1.0 Fine Mostly clear 30 1 1.5 7 S
27/08:30pm 11.5 W 13 16 1011.9 - 1.0 - - - - - - -
27/08:00pm 11.9 W 16 19 1011.7 - 1.0 - - - - - - -
27/07:30pm 12.3 WSW 19 25 1011.3 - 1.0 - - - - - - -
27/07:00pm 12.1 WSW 19 23 1011.1 - 1.0 - - - - - - -
27/06:30pm 12.2 WSW 19 24 1010.8 - 1.0 - - - - - - -
27/06:00pm 12.5 WSW 20 27 1010.7 - 1.0 - - - - - - -
27/05:30pm 12.5 WSW 23 29 1010.3 - 1.0 - - - - - - -
27/05:00pm 12.7 WSW 20 24 1010.2 - 1.0 - - - - - - -
27/04:30pm 12.5 WSW 24 31 1009.8 - 1.0 - - - - - - -
27/04:00pm 12.8 SW 27 33 1009.3 - 1.0 - - - - - - -
27/03:30pm 13.0 SW 29 35 1008.9 - 1.0 - - - - - - -
27/03:00pm 13.2 SW 28 36 1008.7 - 1.0 Recent precip. Mostly cloudy 20 2 1.5 6 SW
27/02:30pm 13.0 SW 30 36 1008.5 - 1.0 - - - - - - -
27/02:00pm 12.7 SW 28 34 1008.5 - 1.0 - - - - - - -
27/01:30pm 12.4 SW 27 34 1008.5 - 1.0 - - - - - - -
27/01:00pm 12.0 SW 31 37 1008.4 - 1.0 - - - - - - -
27/12:30pm 11.3 SSW 27 32 1008.5 - 0.8 - - - - - - -
27/12:00pm 10.7 SSW 27 32 1008.6 - 0.6 Rain - - - - - -
27/11:30am 11.6 SSW 30 35 1008.3 - 0.0 - - - - - - -
27/11:10am 10.7 SW 23 34 1008.5 - 0.0 - - - - - - -
27/11:00am 10.3 WSW 26 32 1008.5 - 0.0 - - - - - - -
27/10:30am 10.7 WSW 24 31 1008.4 - 0.0 - - - - - - -
27/10:00am 10.7 WSW 28 33 1008.4 - 0.0 - - - - - - -
27/09:30am 10.0 WSW 22 29 1008.4 - 0.0 - - - - - - -
27/09:00am 9.2 W 20 26 1008.8 - 2.8 Recent precip. Cloudy 20 1 0.5 8 E
27/08:30am 8.5 W 21 27 1008.9 - 2.4 - - - - - - -
27/08:02am 9.5 W 15 27 1008.9 - 1.0 - - - - - - -
27/08:00am 9.6 W 14 19 1008.9 - 0.8 - - - - - - -
27/07:30am 10.2 W 16 20 1008.1 - 0.0 - - - - - - -
27/07:26am 10.0 W 15 20 1007.9 - 0.0 - - - - - - -
27/07:00am 11.0 SSW 3 7 1007.1 - 0.0 - - - - - - -
27/06:30am 10.1 N 3 5 1007.2 - 0.0 - - - - - - -
27/06:00am 10.5 N 4 6 1007.2 - 0.0 - - - - - - -
27/05:30am 9.9 WSW 1 3 1007.0 - 0.0 - - - - - - -
27/05:00am 9.9 WNW 3 4 1007.4 - 0.0 - - - - - - -
27/04:30am 9.7 N 3 4 1007.5 - 0.0 - - - - - - -
27/04:00am 9.6 N 6 8 1007.7 - 0.0 - - - - - - -
27/03:30am 10.1 N 7 8 1008.1 - 0.0 - - - - - - -
27/03:00am 9.1 N 6 8 1008.4 - 0.0 Fine Mostly cloudy 30 <0.5 0.5 8 S
27/02:30am 9.2 N 6 8 1008.8 - 0.0 - - - - - - -
27/02:00am 9.1 N 5 6 1009.2 - 0.0 - - - - - - -
27/01:30am 10.3 N 3 4 1009.7 - 0.0 - - - - - - -

Other Formats:

Comma delimited format used in spreadsheet applications
http://www.bom.gov.au/fwo/IDV60701/IDV60701.94933.axf

JavaScript Object Notation format (JSON) in row-major order
http://www.bom.gov.au/fwo/IDV60701/IDV60701.94933.json